SondeTracker

Meteorological Radiosondes Database

Operations

Sounding was ended - last measurement: 2022-12-06 13:34:02z

MAP
About Radiosonde

Number: D22042774 ([BC]22042774)

Launch Site: Santa Teresa [NM] (US)

Type: DFM

AUX: NO

Frequency: MHz

Max Speed: 207 km/h at 12555 m

Average Speed: 115.12 km/h

Max Altitude: 32525 m

Average Ascent Speed: 5.16 m/s

Average Descent Speed: 9.69 m/s

Status: UNKNOWN

Status Changes
Launch Site Type AUX Frequency Status Finder Landing Point Description Changes made by
APRS Statistics

Received Frames: 90

First Frame [UTC]: 2022-12-06 11:36:59z

Last Frame [UTC]: 2022-12-06 13:34:02z

Receivers: KB5VL-14

Flight Time: 01:57:03 h

Distance From First Measurement: 213.07 km

Nearest City: Carlsbad [NM] (US) [38.15 km]

Nearest Hunter: [0.00 km]

Ground Altitude: 994 m

Distance from QTH: 0.00 km

APRS Data
Receiver Number Date/Time [UTC] φ λ Course [°] Speed [km/h] Altitude [m] Description
KB5VL-14D220427742022-12-06 13:34:0232.4721-103.84185653346Clb=-4.1m/s Type=DFM17 ser=[BC]22042774 Details on http://radiosondy.info
KB5VL-14D220427742022-12-06 13:33:4632.4719-103.84485743417Clb=-4.4m/s Type=DFM17 ser=[BC]22042774 Details on http://radiosondy.info
KB5VL-14D220427742022-12-06 13:31:0532.4639-103.88165874068Clb=-4.0m/s Type=DFM17 ser=[BC]22042774 Details on http://radiosondy.info
KB5VL-14D220427742022-12-06 13:30:5032.4625-103.88462874131Clb=-4.2m/s Type=DFM17 ser=[BC]22042774 Details on http://radiosondy.info
KB5VL-14D220427742022-12-06 13:30:3432.4608-103.88861874197Clb=-3.9m/s Type=DFM17 ser=[BC]22042774 Details on http://radiosondy.info
KB5VL-14D220427742022-12-06 13:30:1932.4591-103.89162874262Clb=-4.1m/s Type=DFM17 ser=[BC]22042774 Details on http://radiosondy.info
KB5VL-14D220427742022-12-06 13:28:0232.4459-103.92374834964Clb=-5.7m/s Type=DFM17 ser=[BC]22042774 Details on http://radiosondy.info
KB5VL-14D220427742022-12-06 13:27:4732.445-103.92771785047Clb=-5.4m/s Type=DFM17 ser=[BC]22042774 Details on http://radiosondy.info
KB5VL-14D220427742022-12-06 13:27:3332.444-103.9371785128Clb=-5.6m/s Type=DFM17 ser=[BC]22042774 Details on http://radiosondy.info
KB5VL-14D220427742022-12-06 13:27:1732.443-103.93370875210Clb=-5.2m/s Type=DFM17 ser=[BC]22042774 Details on http://radiosondy.info
KB5VL-14D220427742022-12-06 13:25:0232.4342-103.96675965938Clb=-5.1m/s Type=DFM17 ser=[BC]22042774 Details on http://radiosondy.info
KB5VL-14D220427742022-12-06 13:24:4732.4332-103.9773946018Clb=-5.3m/s Type=DFM17 ser=[BC]22042774 Details on http://radiosondy.info
KB5VL-14D220427742022-12-06 13:24:3232.432-103.97469986098Clb=-5.4m/s Type=DFM17 ser=[BC]22042774 Details on http://radiosondy.info
KB5VL-14D220427742022-12-06 13:24:1632.4307-103.978691116178Clb=-5.0m/s Type=DFM17 ser=[BC]22042774 Details on http://radiosondy.info
KB5VL-14D220427742022-12-06 13:23:1632.3089-104.2916514810853Clb=-7.2m/s Type=DFM17 ser=[BC]22042774 Details on http://radiosondy.info
KB5VL-14D220427742022-12-06 13:22:5632.3066-104.2976615410959Clb=-6.8m/s Type=DFM17 ser=[BC]22042774 Details on http://radiosondy.info
KB5VL-14D220427742022-12-06 13:19:2332.285-104.3647518512012Clb=-5.9m/s Type=DFM17 ser=[BC]22042774 Details on http://radiosondy.info
KB5VL-14D220427742022-12-06 13:15:5232.2682-104.4447617813168Clb=-8.3m/s Type=DFM17 ser=[BC]22042774 Details on http://radiosondy.info
KB5VL-14D220427742022-12-06 13:12:0032.2415-104.5357017815110Clb=-9.8m/s Type=DFM17 ser=[BC]22042774 Details on http://radiosondy.info
KB5VL-14D220427742022-12-06 13:10:3032.2137-104.647513117227Clb=-12.1m/s Type=DFM17 ser=[BC]22042774 Details on http://radiosondy.info
KB5VL-14D220427742022-12-06 13:06:1132.2086-104.689753918701Clb=-7.9m/s Type=DFM17 ser=[BC]22042774 Details on http://radiosondy.info
KB5VL-14D220427742022-12-06 13:05:4932.2083-104.69972818882Clb=-10.9m/s Type=DFM17 ser=[BC]22042774 Details on http://radiosondy.info
KB5VL-14D220427742022-12-06 13:05:2632.209-104.6911651319078Clb=-15.3m/s Type=DFM17 ser=[BC]22042774 Details on http://radiosondy.info
KB5VL-14D220427742022-12-06 13:05:0332.2095-104.6912023119305Clb=-13.1m/s Type=DFM17 ser=[BC]22042774 Details on http://radiosondy.info
KB5VL-14D220427742022-12-06 13:01:2932.2099-104.705658721156Clb=-15.1m/s Type=DFM17 ser=[BC]22042774 Details on http://radiosondy.info
KB5VL-14D220427742022-12-06 13:00:5332.2084-104.709779621335Clb=-16.6m/s Type=DFM17 ser=[BC]22042774 Details on http://radiosondy.info
KB5VL-14D220427742022-12-06 13:00:2832.2078-104.713779321615Clb=-19.1m/s Type=DFM17 ser=[BC]22042774 Details on http://radiosondy.info
KB5VL-14D220427742022-12-06 12:59:5232.2072-104.717815221913Clb=-19.0m/s Type=DFM17 ser=[BC]22042774 Details on http://radiosondy.info
KB5VL-14D220427742022-12-06 12:55:3232.2099-104.729636523856Clb=-12.8m/s Type=DFM17 ser=[BC]22042774 Details on http://radiosondy.info
KB5VL-14D220427742022-12-06 12:55:0032.2094-104.732946924055Clb=-12.6m/s Type=DFM17 ser=[BC]22042774 Details on http://radiosondy.info
KB5VL-14D220427742022-12-06 12:54:3532.2091-104.735739324261Clb=-14.0m/s Type=DFM17 ser=[BC]22042774 Details on http://radiosondy.info
KB5VL-14D220427742022-12-06 12:54:1032.2085-104.739967824470Clb=-13.8m/s Type=DFM17 ser=[BC]22042774 Details on http://radiosondy.info
KB5VL-14D220427742022-12-06 12:49:4732.2151-104.775996926624Clb=-22.2m/s Type=DFM17 ser=[BC]22042774 Details on http://radiosondy.info
KB5VL-14D220427742022-12-06 12:49:1532.2157-104.7781076926978Clb=-23.6m/s Type=DFM17 ser=[BC]22042774 Details on http://radiosondy.info
KB5VL-14D220427742022-12-06 12:48:4332.2164-104.7811276727327Clb=-22.1m/s Type=DFM17 ser=[BC]22042774 Details on http://radiosondy.info
KB5VL-14D220427742022-12-06 12:48:1332.2171-104.78310712227666Clb=-22.2m/s Type=DFM17 ser=[BC]22042774 Details on http://radiosondy.info
KB5VL-14D220427742022-12-06 12:43:5832.2206-104.8338515231383Clb=-29.0m/s Type=DFM17 ser=[BC]22042774 Details on http://radiosondy.info
KB5VL-14D220427742022-12-06 12:43:5232.2195-104.8398218131774Clb=-45.7m/s Type=DFM17 ser=[BC]22042774 Details on http://radiosondy.info
KB5VL-14D220427742022-12-06 12:43:5032.2189-104.8479419432525Clb=-49.8m/s Type=DFM17 ser=[BC]22042774 Details on http://radiosondy.info
KB5VL-14D220427742022-12-06 12:42:0032.2114-104.9349019832073Clb=-0.7m/s Type=DFM17 ser=[BC]22042774 Details on http://radiosondy.info
KB5VL-14D220427742022-12-06 12:41:5932.21-104.9448819431965Clb=6.9m/s Type=DFM17 ser=[BC]22042774 Details on http://radiosondy.info
KB5VL-14D220427742022-12-06 12:41:5632.208-104.9548018531848Clb=5.3m/s Type=DFM17 ser=[BC]22042774 Details on http://radiosondy.info
KB5VL-14D220427742022-12-06 12:41:4232.2038-105.01310816330888Clb=8.8m/s Type=DFM17 ser=[BC]22042774 Details on http://radiosondy.info
KB5VL-14D220427742022-12-06 12:41:2532.2041-105.01911517030764Clb=4.4m/s Type=DFM17 ser=[BC]22042774 Details on http://radiosondy.info
KB5VL-14D220427742022-12-06 12:41:1132.2048-105.02611317430644Clb=9.5m/s Type=DFM17 ser=[BC]22042774 Details on http://radiosondy.info
KB5VL-14D220427742022-12-06 12:40:4932.2054-105.0339515430537Clb=8.1m/s Type=DFM17 ser=[BC]22042774 Details on http://radiosondy.info
KB5VL-14D220427742022-12-06 12:35:4732.2116-105.09710315229798Clb=5.1m/s Type=DFM17 ser=[BC]22042774 Details on http://radiosondy.info
KB5VL-14D220427742022-12-06 12:35:0732.212-105.10410214829745Clb=1.4m/s Type=DFM17 ser=[BC]22042774 Details on http://radiosondy.info
KB5VL-14D220427742022-12-06 12:34:2432.2123-105.119713329689Clb=1.9m/s Type=DFM17 ser=[BC]22042774 Details on http://radiosondy.info
KB5VL-14D220427742022-12-06 12:33:4832.2127-105.11610011529621Clb=1.2m/s Type=DFM17 ser=[BC]22042774 Details on http://radiosondy.info
KB5VL-14D220427742022-12-06 12:24:0032.2458-105.3141027424638Clb=4.2m/s Type=DFM17 ser=[BC]22042774 Details on http://radiosondy.info
KB5VL-14D220427742022-12-06 12:23:2632.2458-105.317916524555Clb=5.0m/s Type=DFM17 ser=[BC]22042774 Details on http://radiosondy.info
KB5VL-14D220427742022-12-06 12:22:5132.2458-105.32766724477Clb=5.6m/s Type=DFM17 ser=[BC]22042774 Details on http://radiosondy.info
KB5VL-14D220427742022-12-06 12:22:1232.2457-105.323726324407Clb=4.9m/s Type=DFM Details on http://radiosondy.info
KB5VL-14D220427742022-12-06 12:16:0432.2411-105.3481143723656Clb=4.7m/s Type=DFM17 ser=[BC]22042774 Details on http://radiosondy.info
KB5VL-14D220427742022-12-06 12:15:5932.2411-105.3491393923534Clb=7.1m/s Type=DFM17 ser=[BC]22042774 Details on http://radiosondy.info
KB5VL-14D220427742022-12-06 12:15:5832.2413-105.351806123428Clb=4.4m/s Type=DFM17 ser=[BC]22042774 Details on http://radiosondy.info
KB5VL-14D220427742022-12-06 12:15:2932.2427-105.376787622672Clb=4.1m/s Type=DFM17 ser=[BC]22042774 Details on http://radiosondy.info
KB5VL-14D220427742022-12-06 12:15:2032.2421-105.379737822616Clb=5.1m/s Type=DFM17 ser=[BC]22042774 Details on http://radiosondy.info
KB5VL-14D220427742022-12-06 12:15:0132.2413-105.383906122538Clb=3.8m/s Type=DFM17 ser=[BC]22042774 Details on http://radiosondy.info
KB5VL-14D220427742022-12-06 12:14:3932.241-105.385815622452Clb=7.2m/s Type=DFM17 ser=[BC]22042774 Details on http://radiosondy.info
KB5VL-14D220427742022-12-06 12:06:1532.2321-105.548796717980Clb=4.6m/s Type=DFM17 ser=[BC]22042774 Details on http://radiosondy.info
KB5VL-14D220427742022-12-06 12:05:3932.232-105.551857017890Clb=6.0m/s Type=DFM17 ser=[BC]22042774 Details on http://radiosondy.info
KB5VL-14D220427742022-12-06 12:05:0032.2318-105.554977817806Clb=5.8m/s Type=DFM17 ser=[BC]22042774 Details on http://radiosondy.info
KB5VL-14D220427742022-12-06 12:04:2232.2317-105.5578010017718Clb=4.6m/s Type=DFM17 ser=[BC]22042774 Details on http://radiosondy.info
KB5VL-14D220427742022-12-06 11:59:0532.2253-105.5987610617111Clb=3.5m/s Type=DFM17 ser=[BC]22042774 Details on http://radiosondy.info
KB5VL-14D220427742022-12-06 11:58:2832.2242-105.6028110417055Clb=2.5m/s Type=DFM17 ser=[BC]22042774 Details on http://radiosondy.info
KB5VL-14D220427742022-12-06 11:57:4532.2234-105.6078010716994Clb=2.9m/s Type=DFM17 ser=[BC]22042774 Details on http://radiosondy.info
KB5VL-14D220427742022-12-06 11:57:1132.2228-105.6128112016927Clb=3.2m/s Type=DFM17 ser=[BC]22042774 Details on http://radiosondy.info
KB5VL-14D220427742022-12-06 11:52:0832.2146-105.6627013916211Clb=6.9m/s Type=DFM17 ser=[BC]22042774 Details on http://radiosondy.info
KB5VL-14D220427742022-12-06 11:51:4832.213-105.6676913916121Clb=5.8m/s Type=DFM17 ser=[BC]22042774 Details on http://radiosondy.info
KB5VL-14D220427742022-12-06 11:51:4432.2111-105.6736413716043Clb=5.4m/s Type=DFM17 ser=[BC]22042774 Details on http://radiosondy.info
KB5VL-14D220427742022-12-06 11:51:2632.2089-105.6786414315972Clb=3.1m/s Type=DFM17 ser=[BC]22042774 Details on http://radiosondy.info
KB5VL-14D220427742022-12-06 11:49:4632.1939-105.737614415340Clb=4.0m/s Type=DFM17 ser=[BC]22042774 Details on http://radiosondy.info
KB5VL-14D220427742022-12-06 11:49:3632.1919-105.7366914615275Clb=4.8m/s Type=DFM17 ser=[BC]22042774 Details on http://radiosondy.info
KB5VL-14D220427742022-12-06 11:49:1932.1899-105.7426714615212Clb=5.3m/s Type=DFM17 ser=[BC]22042774 Details on http://radiosondy.info
KB5VL-14D220427742022-12-06 11:49:0132.1877-105.7486714615146Clb=2.9m/s Type=DFM17 ser=[BC]22042774 Details on http://radiosondy.info
KB5VL-14D220427742022-12-06 11:48:4232.1671-105.7996814614440Clb=4.1m/s Type=DFM17 ser=[BC]22042774 Details on http://radiosondy.info
KB5VL-14D220427742022-12-06 11:48:4132.165-105.8057114614362Clb=6.3m/s Type=DFM17 ser=[BC]22042774 Details on http://radiosondy.info
KB5VL-14D220427742022-12-06 11:48:4032.1631-105.8116914314283Clb=4.2m/s Type=DFM17 ser=[BC]22042774 Details on http://radiosondy.info
KB5VL-14D220427742022-12-06 11:48:3932.1613-105.8177514814206Clb=4.2m/s Type=DFM17 ser=[BC]22042774 Details on http://radiosondy.info
KB5VL-14D220427742022-12-06 11:45:5232.143-105.8736414813567Clb=5.1m/s Type=DFM17 ser=[BC]22042774 Details on http://radiosondy.info
KB5VL-14D220427742022-12-06 11:45:2232.1408-105.8796615713481Clb=7.9m/s Type=DFM17 ser=[BC]22042774 Details on http://radiosondy.info
KB5VL-14D220427742022-12-06 11:44:5332.1387-105.8857416113376Clb=8.8m/s Type=DFM17 ser=[BC]22042774 Details on http://radiosondy.info
KB5VL-14D220427742022-12-06 11:44:2132.1371-105.8928118713278Clb=5.0m/s Type=DFM17 ser=[BC]22042774 Details on http://radiosondy.info
KB5VL-14D220427742022-12-06 11:40:0032.1191-105.9657520712555Clb=4.0m/s Type=DFM17 ser=[BC]22042774 Details on http://radiosondy.info
KB5VL-14D220427742022-12-06 11:39:4532.1168-105.9737520612489Clb=2.7m/s Type=DFM17 ser=[BC]22042774 Details on http://radiosondy.info
KB5VL-14D220427742022-12-06 11:39:3332.1145-105.9827120612428Clb=4.0m/s Type=DFM Details on http://radiosondy.info
KB5VL-14D220427742022-12-06 11:39:1732.1123-105.997518912371Clb=4.7m/s Type=DFM Details on http://radiosondy.info
KB5VL-14D220427742022-12-06 11:36:5932.0941-106.0637517811814Clb=4.1m/s Type=DFM Details on http://radiosondy.info